sensor_id;sensor_type;location;lat;lon;timestamp;pressure;altitude;pressure_sealevel;temperature;humidity
44453;BME280;30155;52.164;21.236;2023-02-17T00:02:03;100841.83;;;2.75;78.41
44453;BME280;30155;52.164;21.236;2023-02-17T00:06:57;100844.20;;;2.79;78.41
44453;BME280;30155;52.164;21.236;2023-02-17T00:11:50;100845.48;;;2.83;78.72
44453;BME280;30155;52.164;21.236;2023-02-17T00:16:43;100841.14;;;2.89;78.64
44453;BME280;30155;52.164;21.236;2023-02-17T00:21:37;100835.09;;;2.88;78.61
44453;BME280;30155;52.164;21.236;2023-02-17T00:26:30;100832.90;;;2.89;78.58
44453;BME280;30155;52.164;21.236;2023-02-17T00:31:23;100831.11;;;2.91;78.71
44453;BME280;30155;52.164;21.236;2023-02-17T00:36:18;100821.81;;;2.93;78.83
44453;BME280;30155;52.164;21.236;2023-02-17T00:41:11;100818.35;;;2.96;78.66
44453;BME280;30155;52.164;21.236;2023-02-17T00:46:04;100816.75;;;3.01;78.89
44453;BME280;30155;52.164;21.236;2023-02-17T00:50:58;100819.64;;;3.09;78.95
44453;BME280;30155;52.164;21.236;2023-02-17T00:55:51;100811.42;;;3.04;78.55
44453;BME280;30155;52.164;21.236;2023-02-17T01:00:43;100806.77;;;3.08;78.74
44453;BME280;30155;52.164;21.236;2023-02-17T01:05:45;100804.66;;;3.06;78.45
44453;BME280;30155;52.164;21.236;2023-02-17T01:10:40;100795.40;;;3.06;78.47
44453;BME280;30155;52.164;21.236;2023-02-17T01:15:44;100790.72;;;3.05;78.57
44453;BME280;30155;52.164;21.236;2023-02-17T01:20:39;100784.20;;;3.01;78.48
44453;BME280;30155;52.164;21.236;2023-02-17T01:25:40;100779.36;;;2.97;78.26
44453;BME280;30155;52.164;21.236;2023-02-17T01:30:34;100773.24;;;2.97;78.40
44453;BME280;30155;52.164;21.236;2023-02-17T01:35:26;100769.82;;;2.98;78.32
44453;BME280;30155;52.164;21.236;2023-02-17T01:40:19;100767.36;;;2.96;78.35
44453;BME280;30155;52.164;21.236;2023-02-17T01:50:11;100758.80;;;3.00;78.37
44453;BME280;30155;52.164;21.236;2023-02-17T01:55:07;100748.32;;;2.99;78.37
44453;BME280;30155;52.164;21.236;2023-02-17T02:00:04;100748.40;;;2.97;78.35
44453;BME280;30155;52.164;21.236;2023-02-17T02:05:03;100750.95;;;2.97;78.51
44453;BME280;30155;52.164;21.236;2023-02-17T02:09:57;100745.09;;;3.00;78.62
44453;BME280;30155;52.164;21.236;2023-02-17T02:14:52;100745.84;;;2.98;78.53
44453;BME280;30155;52.164;21.236;2023-02-17T02:36:27;100735.05;;;2.94;78.22
44453;BME280;30155;52.164;21.236;2023-02-17T02:41:26;100733.42;;;2.92;78.17
44453;BME280;30155;52.164;21.236;2023-02-17T02:46:21;100735.31;;;2.92;78.28
44453;BME280;30155;52.164;21.236;2023-02-17T02:51:31;100729.69;;;2.93;78.47
44453;BME280;30155;52.164;21.236;2023-02-17T03:07:08;100709.11;;;2.99;78.46
44453;BME280;30155;52.164;21.236;2023-02-17T03:12:05;100707.73;;;3.02;78.66
44453;BME280;30155;52.164;21.236;2023-02-17T03:16:58;100715.45;;;3.07;78.47
44453;BME280;30155;52.164;21.236;2023-02-17T03:21:56;100720.06;;;3.11;78.90
44453;BME280;30155;52.164;21.236;2023-02-17T03:26:49;100720.88;;;3.13;78.56
44453;BME280;30155;52.164;21.236;2023-02-17T03:31:42;100722.20;;;3.16;78.83
44453;BME280;30155;52.164;21.236;2023-02-17T03:36:35;100721.44;;;3.18;78.86
44453;BME280;30155;52.164;21.236;2023-02-17T03:41:28;100716.14;;;3.21;79.14
44453;BME280;30155;52.164;21.236;2023-02-17T03:46:21;100719.95;;;3.22;79.30
44453;BME280;30155;52.164;21.236;2023-02-17T03:51:24;100721.48;;;3.26;79.24
44453;BME280;30155;52.164;21.236;2023-02-17T03:56:18;100719.65;;;3.27;79.46
44453;BME280;30155;52.164;21.236;2023-02-17T04:01:12;100716.80;;;3.28;79.25
44453;BME280;30155;52.164;21.236;2023-02-17T04:06:05;100716.77;;;3.32;79.49
44453;BME280;30155;52.164;21.236;2023-02-17T04:11:00;100721.73;;;3.35;79.56
44453;BME280;30155;52.164;21.236;2023-02-17T04:15:54;100720.38;;;3.36;79.76
44453;BME280;30155;52.164;21.236;2023-02-17T04:20:48;100695.06;;;3.36;79.54
44453;BME280;30155;52.164;21.236;2023-02-17T04:25:42;100693.00;;;3.29;79.79
44453;BME280;30155;52.164;21.236;2023-02-17T04:30:38;100693.27;;;3.31;80.08
44453;BME280;30155;52.164;21.236;2023-02-17T04:35:31;100693.00;;;3.36;80.34
44453;BME280;30155;52.164;21.236;2023-02-17T04:40:24;100690.91;;;3.43;80.23
44453;BME280;30155;52.164;21.236;2023-02-17T04:45:17;100688.65;;;3.46;80.38
44453;BME280;30155;52.164;21.236;2023-02-17T04:50:10;100694.08;;;3.53;80.58
44453;BME280;30155;52.164;21.236;2023-02-17T04:55:04;100685.98;;;3.59;80.23
44453;BME280;30155;52.164;21.236;2023-02-17T04:59:58;100687.44;;;3.61;80.58
44453;BME280;30155;52.164;21.236;2023-02-17T05:04:51;100674.39;;;3.65;80.67
44453;BME280;30155;52.164;21.236;2023-02-17T05:09:44;100660.40;;;3.66;80.69
44453;BME280;30155;52.164;21.236;2023-02-17T05:14:38;100645.36;;;3.59;80.43
44453;BME280;30155;52.164;21.236;2023-02-17T05:19:31;100670.64;;;3.61;80.93
44453;BME280;30155;52.164;21.236;2023-02-17T05:24:23;100669.56;;;3.72;81.15
44453;BME280;30155;52.164;21.236;2023-02-17T05:29:16;100656.17;;;3.75;80.93
44453;BME280;30155;52.164;21.236;2023-02-17T05:34:09;100647.27;;;3.72;80.92
44453;BME280;30155;52.164;21.236;2023-02-17T05:39:02;100646.29;;;3.73;81.12
44453;BME280;30155;52.164;21.236;2023-02-17T05:43:55;100639.77;;;3.72;81.19
44453;BME280;30155;52.164;21.236;2023-02-17T05:48:48;100641.97;;;3.72;81.16
44453;BME280;30155;52.164;21.236;2023-02-17T05:53:40;100653.95;;;3.76;81.39
44453;BME280;30155;52.164;21.236;2023-02-17T05:58:33;100647.94;;;3.84;81.50
44453;BME280;30155;52.164;21.236;2023-02-17T06:03:26;100646.21;;;3.83;81.22
44453;BME280;30155;52.164;21.236;2023-02-17T06:08:19;100630.79;;;3.83;81.15
44453;BME280;30155;52.164;21.236;2023-02-17T06:13:12;100634.27;;;3.85;81.28
44453;BME280;30155;52.164;21.236;2023-02-17T06:18:05;100631.42;;;3.82;81.28
44453;BME280;30155;52.164;21.236;2023-02-17T06:22:57;100637.88;;;3.85;81.38
44453;BME280;30155;52.164;21.236;2023-02-17T06:27:50;100638.50;;;3.87;81.40
44453;BME280;30155;52.164;21.236;2023-02-17T06:32:43;100630.66;;;3.89;81.25
44453;BME280;30155;52.164;21.236;2023-02-17T06:37:36;100636.45;;;3.92;81.46
44453;BME280;30155;52.164;21.236;2023-02-17T06:42:29;100632.67;;;3.91;81.56
44453;BME280;30155;52.164;21.236;2023-02-17T06:47:22;100631.79;;;3.95;81.68
44453;BME280;30155;52.164;21.236;2023-02-17T06:52:14;100628.68;;;4.07;81.83
44453;BME280;30155;52.164;21.236;2023-02-17T06:57:07;100628.61;;;4.13;81.53
44453;BME280;30155;52.164;21.236;2023-02-17T07:02:00;100633.36;;;4.16;81.55
44453;BME280;30155;52.164;21.236;2023-02-17T07:06:53;100620.43;;;4.19;81.66
44453;BME280;30155;52.164;21.236;2023-02-17T07:11:46;100612.23;;;4.32;81.83
44453;BME280;30155;52.164;21.236;2023-02-17T07:16:41;100606.52;;;4.44;81.63
44453;BME280;30155;52.164;21.236;2023-02-17T07:21:34;100609.05;;;4.47;81.44
44453;BME280;30155;52.164;21.236;2023-02-17T07:26:27;100610.28;;;4.52;81.32
44453;BME280;30155;52.164;21.236;2023-02-17T07:31:20;100605.42;;;4.64;81.19
44453;BME280;30155;52.164;21.236;2023-02-17T07:36:14;100595.30;;;4.78;81.28
44453;BME280;30155;52.164;21.236;2023-02-17T07:41:10;100591.27;;;4.89;81.11
44453;BME280;30155;52.164;21.236;2023-02-17T07:46:04;100591.48;;;5.27;81.14
44453;BME280;30155;52.164;21.236;2023-02-17T07:51:06;100597.14;;;5.47;80.69
44453;BME280;30155;52.164;21.236;2023-02-17T07:56:03;100602.95;;;5.50;80.60
44453;BME280;30155;52.164;21.236;2023-02-17T08:00:58;100599.48;;;5.59;80.65
44453;BME280;30155;52.164;21.236;2023-02-17T08:05:56;100596.23;;;5.64;80.52
44453;BME280;30155;52.164;21.236;2023-02-17T08:10:49;100583.35;;;5.65;80.16
44453;BME280;30155;52.164;21.236;2023-02-17T08:15:59;100589.93;;;5.71;79.96
44453;BME280;30155;52.164;21.236;2023-02-17T08:20:56;100581.02;;;5.82;80.00
44453;BME280;30155;52.164;21.236;2023-02-17T08:25:48;100581.23;;;5.93;80.09
44453;BME280;30155;52.164;21.236;2023-02-17T08:30:41;100571.40;;;6.13;80.04
44453;BME280;30155;52.164;21.236;2023-02-17T08:35:34;100572.18;;;6.21;79.31
44453;BME280;30155;52.164;21.236;2023-02-17T08:40:27;100572.62;;;6.30;79.24
44453;BME280;30155;52.164;21.236;2023-02-17T08:45:20;100570.19;;;6.34;79.26
44453;BME280;30155;52.164;21.236;2023-02-17T08:50:16;100564.98;;;6.32;79.23
44453;BME280;30155;52.164;21.236;2023-02-17T08:55:10;100556.04;;;6.38;79.52
44453;BME280;30155;52.164;21.236;2023-02-17T09:00:05;100549.43;;;6.59;79.36
44453;BME280;30155;52.164;21.236;2023-02-17T09:04:59;100549.98;;;6.72;79.21
44453;BME280;30155;52.164;21.236;2023-02-17T09:09:54;100544.71;;;6.80;79.04
44453;BME280;30155;52.164;21.236;2023-02-17T09:14:47;100539.14;;;6.90;79.10
44453;BME280;30155;52.164;21.236;2023-02-17T09:19:40;100542.73;;;7.00;78.98
44453;BME280;30155;52.164;21.236;2023-02-17T09:24:33;100542.23;;;7.07;78.80
44453;BME280;30155;52.164;21.236;2023-02-17T09:29:29;100542.61;;;7.09;78.89
44453;BME280;30155;52.164;21.236;2023-02-17T09:34:23;100535.27;;;7.04;78.80
44453;BME280;30155;52.164;21.236;2023-02-17T09:39:16;100529.04;;;6.97;78.96
44453;BME280;30155;52.164;21.236;2023-02-17T09:49:19;100514.68;;;7.02;79.32
44453;BME280;30155;52.164;21.236;2023-02-17T09:54:18;100510.83;;;7.06;79.46
44453;BME280;30155;52.164;21.236;2023-02-17T09:59:26;100501.86;;;7.12;79.37
44453;BME280;30155;52.164;21.236;2023-02-17T10:04:25;100493.95;;;7.26;79.37
44453;BME280;30155;52.164;21.236;2023-02-17T10:09:29;100488.81;;;7.40;79.66
44453;BME280;30155;52.164;21.236;2023-02-17T10:14:32;100483.52;;;7.48;79.40
44453;BME280;30155;52.164;21.236;2023-02-17T10:19:33;100475.35;;;7.53;79.17
44453;BME280;30155;52.164;21.236;2023-02-17T10:24:28;100468.58;;;7.58;78.89
44453;BME280;30155;52.164;21.236;2023-02-17T10:34:37;100470.39;;;7.41;79.15
44453;BME280;30155;52.164;21.236;2023-02-17T10:39:47;100469.41;;;7.36;79.33
44453;BME280;30155;52.164;21.236;2023-02-17T10:44:40;100461.14;;;7.30;79.22
44453;BME280;30155;52.164;21.236;2023-02-17T10:49:36;100456.83;;;7.17;79.46
44453;BME280;30155;52.164;21.236;2023-02-17T10:54:41;100448.67;;;7.08;79.87
44453;BME280;30155;52.164;21.236;2023-02-17T10:59:39;100434.34;;;7.01;79.71
44453;BME280;30155;52.164;21.236;2023-02-17T11:04:40;100424.95;;;6.98;79.70
44453;BME280;30155;52.164;21.236;2023-02-17T11:09:34;100415.63;;;6.97;80.24
44453;BME280;30155;52.164;21.236;2023-02-17T11:14:30;100403.08;;;6.92;80.29
44453;BME280;30155;52.164;21.236;2023-02-17T11:19:26;100395.09;;;6.96;80.66
44453;BME280;30155;52.164;21.236;2023-02-17T11:24:20;100378.93;;;7.05;80.92
44453;BME280;30155;52.164;21.236;2023-02-17T11:29:20;100370.23;;;7.07;80.98
44453;BME280;30155;52.164;21.236;2023-02-17T11:34:21;100355.20;;;6.99;80.83
44453;BME280;30155;52.164;21.236;2023-02-17T11:39:18;100337.89;;;6.96;80.96
44453;BME280;30155;52.164;21.236;2023-02-17T11:44:21;100331.59;;;6.92;81.07
44453;BME280;30155;52.164;21.236;2023-02-17T12:04:53;100285.02;;;6.97;82.00
44453;BME280;30155;52.164;21.236;2023-02-17T12:21:11;100256.43;;;6.91;82.15
44453;BME280;30155;52.164;21.236;2023-02-17T12:26:22;100244.34;;;6.97;82.24
44453;BME280;30155;52.164;21.236;2023-02-17T12:36:50;100217.98;;;7.12;82.35
44453;BME280;30155;52.164;21.236;2023-02-17T12:47:19;100186.06;;;7.11;82.32
44453;BME280;30155;52.164;21.236;2023-02-17T12:52:20;100175.27;;;7.06;82.32
44453;BME280;30155;52.164;21.236;2023-02-17T12:57:24;100169.24;;;6.98;82.64
44453;BME280;30155;52.164;21.236;2023-02-17T13:02:21;100164.82;;;7.00;82.85
44453;BME280;30155;52.164;21.236;2023-02-17T13:22:22;100140.52;;;6.93;83.16
44453;BME280;30155;52.164;21.236;2023-02-17T13:32:27;100122.61;;;6.94;83.43
44453;BME280;30155;52.164;21.236;2023-02-17T13:37:37;100117.30;;;6.94;83.65
44453;BME280;30155;52.164;21.236;2023-02-17T13:42:37;100113.39;;;6.97;83.79
44453;BME280;30155;52.164;21.236;2023-02-17T13:47:34;100108.41;;;6.97;83.90
44453;BME280;30155;52.164;21.236;2023-02-17T13:52:29;100098.58;;;6.97;84.06
44453;BME280;30155;52.164;21.236;2023-02-17T13:57:28;100095.48;;;6.97;84.03
44453;BME280;30155;52.164;21.236;2023-02-17T14:02:21;100091.88;;;6.99;84.36
44453;BME280;30155;52.164;21.236;2023-02-17T14:07:26;100080.16;;;6.98;84.52
44453;BME280;30155;52.164;21.236;2023-02-17T14:12:22;100069.30;;;6.98;84.56
44453;BME280;30155;52.164;21.236;2023-02-17T14:17:31;100063.98;;;6.99;84.90
44453;BME280;30155;52.164;21.236;2023-02-17T14:22:30;100056.02;;;6.97;84.89
44453;BME280;30155;52.164;21.236;2023-02-17T14:27:23;100039.27;;;6.96;84.97
44453;BME280;30155;52.164;21.236;2023-02-17T14:32:34;100029.73;;;6.94;85.07
44453;BME280;30155;52.164;21.236;2023-02-17T14:37:27;100013.70;;;6.92;85.18
44453;BME280;30155;52.164;21.236;2023-02-17T14:42:22;100002.03;;;6.95;85.31
44453;BME280;30155;52.164;21.236;2023-02-17T14:47:15;99993.44;;;6.96;85.48
44453;BME280;30155;52.164;21.236;2023-02-17T14:52:20;99975.52;;;6.96;85.70
44453;BME280;30155;52.164;21.236;2023-02-17T14:57:15;99962.06;;;6.95;85.56
44453;BME280;30155;52.164;21.236;2023-02-17T15:02:14;99949.66;;;6.95;85.77
44453;BME280;30155;52.164;21.236;2023-02-17T15:07:11;99933.23;;;6.92;85.62
44453;BME280;30155;52.164;21.236;2023-02-17T15:12:13;99927.00;;;6.90;86.00
44453;BME280;30155;52.164;21.236;2023-02-17T15:17:06;99918.52;;;6.87;85.89
44453;BME280;30155;52.164;21.236;2023-02-17T15:21:59;99911.95;;;6.86;86.20
44453;BME280;30155;52.164;21.236;2023-02-17T15:26:54;99903.34;;;6.86;86.20
44453;BME280;30155;52.164;21.236;2023-02-17T15:31:47;99895.23;;;6.87;86.23
44453;BME280;30155;52.164;21.236;2023-02-17T15:36:41;99884.27;;;6.89;86.44
44453;BME280;30155;52.164;21.236;2023-02-17T15:41:34;99874.44;;;6.90;86.53
44453;BME280;30155;52.164;21.236;2023-02-17T15:46:30;99869.08;;;6.88;86.59
44453;BME280;30155;52.164;21.236;2023-02-17T15:51:23;99858.05;;;6.88;86.75
44453;BME280;30155;52.164;21.236;2023-02-17T15:56:19;99843.28;;;6.90;86.69
44453;BME280;30155;52.164;21.236;2023-02-17T16:01:21;99832.65;;;6.93;86.93
44453;BME280;30155;52.164;21.236;2023-02-17T16:06:16;99827.88;;;6.96;86.91
44453;BME280;30155;52.164;21.236;2023-02-17T16:11:11;99817.07;;;6.99;86.94
44453;BME280;30155;52.164;21.236;2023-02-17T16:16:13;99809.33;;;6.99;86.99
44453;BME280;30155;52.164;21.236;2023-02-17T16:21:09;99798.98;;;6.99;86.96
44453;BME280;30155;52.164;21.236;2023-02-17T16:26:04;99795.23;;;7.01;87.07
44453;BME280;30155;52.164;21.236;2023-02-17T16:30:58;99782.38;;;7.05;87.21
44453;BME280;30155;52.164;21.236;2023-02-17T16:35:50;99773.95;;;7.07;87.03
44453;BME280;30155;52.164;21.236;2023-02-17T16:40:46;99757.44;;;7.09;87.11
44453;BME280;30155;52.164;21.236;2023-02-17T16:46:01;99751.20;;;7.06;87.18
44453;BME280;30155;52.164;21.236;2023-02-17T16:50:54;99742.37;;;7.04;87.18
44453;BME280;30155;52.164;21.236;2023-02-17T16:55:47;99740.81;;;7.04;87.28
44453;BME280;30155;52.164;21.236;2023-02-17T17:00:40;99728.05;;;7.02;87.42
44453;BME280;30155;52.164;21.236;2023-02-17T17:05:33;99725.80;;;7.03;87.59
44453;BME280;30155;52.164;21.236;2023-02-17T17:10:30;99714.79;;;7.03;87.72
44453;BME280;30155;52.164;21.236;2023-02-17T17:15:23;99700.34;;;7.05;87.93
44453;BME280;30155;52.164;21.236;2023-02-17T17:20:19;99687.11;;;7.07;87.69
44453;BME280;30155;52.164;21.236;2023-02-17T17:25:14;99678.84;;;7.08;87.67
44453;BME280;30155;52.164;21.236;2023-02-17T17:30:16;99660.58;;;7.08;87.94
44453;BME280;30155;52.164;21.236;2023-02-17T17:35:10;99657.67;;;7.09;87.92
44453;BME280;30155;52.164;21.236;2023-02-17T17:40:04;99648.38;;;7.10;88.06
44453;BME280;30155;52.164;21.236;2023-02-17T17:44:57;99634.98;;;7.13;87.86
44453;BME280;30155;52.164;21.236;2023-02-17T17:49:50;99617.44;;;7.16;87.96
44453;BME280;30155;52.164;21.236;2023-02-17T17:54:43;99609.16;;;7.16;87.96
44453;BME280;30155;52.164;21.236;2023-02-17T17:59:36;99598.98;;;7.15;87.82
44453;BME280;30155;52.164;21.236;2023-02-17T18:04:29;99588.63;;;7.14;87.98
44453;BME280;30155;52.164;21.236;2023-02-17T18:09:25;99592.26;;;7.14;88.09
44453;BME280;30155;52.164;21.236;2023-02-17T18:14:22;99579.33;;;7.14;88.09
44453;BME280;30155;52.164;21.236;2023-02-17T18:19:17;99576.25;;;7.16;88.15
44453;BME280;30155;52.164;21.236;2023-02-17T18:24:11;99568.17;;;7.18;88.07
44453;BME280;30155;52.164;21.236;2023-02-17T18:29:04;99559.05;;;7.19;88.08
44453;BME280;30155;52.164;21.236;2023-02-17T18:33:57;99549.05;;;7.18;88.30
44453;BME280;30155;52.164;21.236;2023-02-17T18:38:49;99544.58;;;7.19;88.44
44453;BME280;30155;52.164;21.236;2023-02-17T18:43:42;99533.39;;;7.20;88.39
44453;BME280;30155;52.164;21.236;2023-02-17T18:48:35;99518.59;;;7.21;88.42
44453;BME280;30155;52.164;21.236;2023-02-17T18:53:28;99506.19;;;7.23;88.58
44453;BME280;30155;52.164;21.236;2023-02-17T18:58:21;99507.60;;;7.25;88.74
44453;BME280;30155;52.164;21.236;2023-02-17T19:03:14;99501.41;;;7.29;88.82
44453;BME280;30155;52.164;21.236;2023-02-17T19:08:07;99505.75;;;7.32;88.74
44453;BME280;30155;52.164;21.236;2023-02-17T19:12:59;99507.38;;;7.37;89.01
44453;BME280;30155;52.164;21.236;2023-02-17T19:17:56;99499.84;;;7.41;88.94
44453;BME280;30155;52.164;21.236;2023-02-17T19:22:49;99494.67;;;7.44;89.06
44453;BME280;30155;52.164;21.236;2023-02-17T19:27:42;99486.27;;;7.48;89.04
44453;BME280;30155;52.164;21.236;2023-02-17T19:32:35;99476.83;;;7.51;89.09
44453;BME280;30155;52.164;21.236;2023-02-17T19:37:28;99479.95;;;7.54;89.33
44453;BME280;30155;52.164;21.236;2023-02-17T19:42:20;99469.98;;;7.57;89.38
44453;BME280;30155;52.164;21.236;2023-02-17T19:47:13;99467.60;;;7.61;89.59
44453;BME280;30155;52.164;21.236;2023-02-17T19:52:06;99451.94;;;7.64;89.78
44453;BME280;30155;52.164;21.236;2023-02-17T19:56:59;99452.51;;;7.71;89.88
44453;BME280;30155;52.164;21.236;2023-02-17T20:01:52;99445.30;;;7.77;89.91
44453;BME280;30155;52.164;21.236;2023-02-17T20:06:46;99446.05;;;7.83;90.22
44453;BME280;30155;52.164;21.236;2023-02-17T20:11:39;99442.12;;;7.88;90.27
44453;BME280;30155;52.164;21.236;2023-02-17T20:16:32;99437.85;;;7.93;90.32
44453;BME280;30155;52.164;21.236;2023-02-17T20:21:27;99447.04;;;8.00;90.69
44453;BME280;30155;52.164;21.236;2023-02-17T20:26:27;99444.52;;;8.09;91.09
44453;BME280;30155;52.164;21.236;2023-02-17T20:31:21;99436.63;;;8.16;91.09
44453;BME280;30155;52.164;21.236;2023-02-17T20:36:15;99427.69;;;8.24;91.08
44453;BME280;30155;52.164;21.236;2023-02-17T20:41:12;99422.91;;;8.34;91.50
44453;BME280;30155;52.164;21.236;2023-02-17T20:46:06;99420.73;;;8.44;91.43
44453;BME280;30155;52.164;21.236;2023-02-17T20:50:59;99414.40;;;8.52;91.32
44453;BME280;30155;52.164;21.236;2023-02-17T20:55:54;99406.83;;;8.59;91.35
44453;BME280;30155;52.164;21.236;2023-02-17T21:00:47;99408.93;;;8.67;91.34
44453;BME280;30155;52.164;21.236;2023-02-17T21:05:40;99403.95;;;8.75;91.32
44453;BME280;30155;52.164;21.236;2023-02-17T21:10:33;99400.69;;;8.82;91.35
44453;BME280;30155;52.164;21.236;2023-02-17T21:15:26;99396.21;;;8.86;91.17
44453;BME280;30155;52.164;21.236;2023-02-17T21:20:20;99398.63;;;8.88;91.07
44453;BME280;30155;52.164;21.236;2023-02-17T21:25:17;99375.30;;;8.88;91.15
44453;BME280;30155;52.164;21.236;2023-02-17T21:30:11;99378.77;;;8.90;91.17
44453;BME280;30155;52.164;21.236;2023-02-17T21:35:04;99360.96;;;8.94;91.19
44453;BME280;30155;52.164;21.236;2023-02-17T21:39:57;99360.47;;;9.01;91.27
44453;BME280;30155;52.164;21.236;2023-02-17T21:44:50;99355.29;;;9.05;90.93
44453;BME280;30155;52.164;21.236;2023-02-17T21:49:43;99358.23;;;9.08;90.72
44453;BME280;30155;52.164;21.236;2023-02-17T21:54:38;99359.08;;;9.08;90.60
44453;BME280;30155;52.164;21.236;2023-02-17T21:59:31;99361.16;;;9.07;90.54
44453;BME280;30155;52.164;21.236;2023-02-17T22:04:24;99353.91;;;9.05;90.31
44453;BME280;30155;52.164;21.236;2023-02-17T22:09:18;99350.10;;;9.01;90.23
44453;BME280;30155;52.164;21.236;2023-02-17T22:14:14;99348.73;;;8.98;90.28
44453;BME280;30155;52.164;21.236;2023-02-17T22:19:11;99363.57;;;8.94;90.28
44453;BME280;30155;52.164;21.236;2023-02-17T22:24:04;99393.80;;;8.89;90.24
44453;BME280;30155;52.164;21.236;2023-02-17T22:28:57;99368.38;;;8.84;90.14
44453;BME280;30155;52.164;21.236;2023-02-17T22:33:50;99376.66;;;8.76;90.10
44453;BME280;30155;52.164;21.236;2023-02-17T22:38:43;99375.77;;;8.68;89.74
44453;BME280;30155;52.164;21.236;2023-02-17T22:43:38;99367.95;;;8.55;89.33
44453;BME280;30155;52.164;21.236;2023-02-17T22:48:33;99358.73;;;8.42;89.04
44453;BME280;30155;52.164;21.236;2023-02-17T22:53:29;99357.63;;;8.32;88.77
44453;BME280;30155;52.164;21.236;2023-02-17T22:58:24;99370.89;;;8.22;88.58
44453;BME280;30155;52.164;21.236;2023-02-17T23:03:17;99378.95;;;8.16;88.64
44453;BME280;30155;52.164;21.236;2023-02-17T23:08:10;99385.52;;;8.13;88.26
44453;BME280;30155;52.164;21.236;2023-02-17T23:13:03;99384.48;;;8.13;88.23
44453;BME280;30155;52.164;21.236;2023-02-17T23:17:56;99389.83;;;8.13;87.94
44453;BME280;30155;52.164;21.236;2023-02-17T23:22:49;99373.40;;;8.08;87.64
44453;BME280;30155;52.164;21.236;2023-02-17T23:27:42;99377.86;;;8.05;87.72
44453;BME280;30155;52.164;21.236;2023-02-17T23:32:35;99382.69;;;8.05;87.91
44453;BME280;30155;52.164;21.236;2023-02-17T23:37:28;99382.17;;;8.04;87.74
44453;BME280;30155;52.164;21.236;2023-02-17T23:42:21;99382.33;;;7.96;87.23
44453;BME280;30155;52.164;21.236;2023-02-17T23:47:13;99390.90;;;7.90;86.36
44453;BME280;30155;52.164;21.236;2023-02-17T23:52:06;99387.21;;;7.83;85.27
44453;BME280;30155;52.164;21.236;2023-02-17T23:56:59;99388.38;;;7.76;84.24
